Time;durP1;ratioP1;P1;durP2;ratioP2;P2;SDS_P1;SDS_P2;PMS_P1;PMS_P2;Temp;Humidity;BMP_temperature;BMP_pressure;BME280_temperature;BME280_humidity;BME280_pressure;Samples;Min_cycle;Max_cycle;Signal;HPM_P1;HPM_P2
2021/04/10 08:40:50;;;;;;;12.88;5.28;;;;;;;9.09;44.59;99882.03;1807514;79;23138;-85
2021/04/10 08:43:25;;;;;;;13.65;5.50;;;;;;;9.21;45.61;99881.50;1802194;78;21283;-83
2021/04/10 08:45:55;;;;;;;9.30;4.90;;;;;;;9.32;40.35;99875.36;1813748;78;21217;-83
2021/04/10 08:48:29;;;;;;;15.10;5.45;;;;;;;9.49;44.52;99875.66;1827850;78;21299;-83
2021/04/10 08:51:01;;;;;;;10.60;4.00;;;;;;;9.68;44.73;99879.83;1813605;78;21161;-84
2021/04/10 08:53:37;;;;;;;9.58;4.05;;;;;;;9.86;39.17;99874.05;1806065;77;21155;-85
2021/04/10 08:56:12;;;;;;;8.33;4.28;;;;;;;10.05;40.55;99878.19;1801329;78;21228;-84
2021/04/10 08:58:42;;;;;;;8.75;3.92;;;;;;;10.20;41.08;99866.75;1826423;78;21331;-82
2021/04/10 09:01:20;;;;;;;9.10;3.95;;;;;;;10.32;41.48;99860.59;1806375;78;21275;-84
2021/04/10 09:03:52;;;;;;;10.80;4.30;;;;;;;10.51;36.56;99860.80;1817651;78;21283;-85
2021/04/10 09:06:34;;;;;;;9.95;4.58;;;;;;;10.70;36.99;99861.84;1820018;78;21168;-82
2021/04/10 09:09:21;;;;;;;10.63;4.53;;;;;;;10.78;32.90;99858.70;1798943;80;21826;-84
2021/04/10 09:11:46;;;;;;;;;;;;;;;10.95;39.04;99860.62;1826583;78;21117;-83
2021/04/10 09:14:14;;;;;;;11.10;3.87;;;;;;;11.10;38.88;99870.38;1724384;78;20263;-82
2021/04/10 09:16:49;;;;;;;7.90;3.33;;;;;;;11.17;38.63;99865.52;1664613;82;21245;-84
2021/04/10 09:19:21;;;;;;;7.22;3.30;;;;;;;11.21;36.93;99859.38;1739612;82;21280;-84
2021/04/10 09:21:52;;;;;;;13.72;3.80;;;;;;;11.31;37.34;99858.35;1739230;82;21241;-84
2021/04/10 09:24:41;;;;;;;8.55;3.90;;;;;;;11.36;36.19;99858.30;1737837;83;21312;-85
2021/04/10 09:27:25;;;;;;;9.13;3.60;;;;;;;11.41;33.13;99858.22;1738658;83;21300;-84
2021/04/10 09:30:00;;;;;;;7.67;3.77;;;;;;;11.51;36.68;99850.66;1739374;83;21312;-84
2021/04/10 09:32:35;;;;;;;10.90;3.77;;;;;;;11.62;38.01;99850.05;1739727;82;21296;-84
2021/04/10 09:35:15;;;;;;;5.78;2.87;;;;;;;11.78;38.23;99846.73;1738095;83;21216;-83
2021/04/10 09:37:49;;;;;;;9.65;3.20;;;;;;;11.90;35.91;99853.50;1739674;82;21304;-84
2021/04/10 09:40:24;;;;;;;7.83;3.22;;;;;;;11.99;33.12;99845.48;1739162;83;21174;-85
2021/04/10 09:43:04;;;;;;;6.03;2.67;;;;;;;12.13;32.82;99840.86;1738446;82;21291;-85
2021/04/10 09:45:34;;;;;;;6.00;3.17;;;;;;;12.19;31.98;99832.52;1748472;81;21287;-84
2021/04/10 09:48:11;;;;;;;8.10;3.12;;;;;;;12.34;34.70;99824.40;1729721;83;21171;-83
2021/04/10 09:50:47;;;;;;;7.28;3.33;;;;;;;12.46;35.51;99821.98;1710372;84;21287;-83
2021/04/10 09:53:23;;;;;;;7.62;2.67;;;;;;;12.59;31.62;99823.87;1707755;83;21319;-84
2021/04/10 09:56:01;;;;;;;7.47;3.00;;;;;;;12.75;31.54;99817.41;1728950;81;21302;-84
2021/04/10 09:58:42;;;;;;;9.75;3.27;;;;;;;12.92;32.43;99810.06;1738906;82;21198;-84
2021/04/10 10:01:15;;;;;;;8.80;3.33;;;;;;;13.05;33.60;99810.66;1738844;82;21285;-84
2021/04/10 10:03:45;;;;;;;;;;;;;;;13.21;30.23;99804.61;1740979;82;21241;-84
2021/04/10 10:06:27;;;;;;;9.30;2.95;;;;;;;13.37;30.39;99800.33;1738776;81;20213;-84
2021/04/10 10:08:54;;;;;;;6.37;3.50;;;;;;;13.50;35.14;99797.81;1738721;82;21335;-84
2021/04/10 10:11:22;;;;;;;6.78;3.65;;;;;;;13.51;32.87;99794.33;1738756;83;21252;-84
2021/04/10 10:13:51;;;;;;;8.78;3.95;;;;;;;13.53;33.21;99786.00;1739040;83;21320;-84
2021/04/10 10:16:28;;;;;;;7.83;3.95;;;;;;;13.68;33.94;99782.95;1716304;82;21172;-85
2021/04/10 10:18:56;;;;;;;12.03;4.95;;;;;;;13.91;34.30;99780.19;1740239;81;21198;-85
2021/04/10 10:21:25;;;;;;;10.68;4.60;;;;;;;14.10;33.86;99774.81;1738687;82;21210;-84
2021/04/10 10:23:56;;;;;;;7.95;3.72;;;;;;;14.23;34.04;99766.64;1754010;81;21170;-83
2021/04/10 10:26:33;;;;;;;8.63;3.50;;;;;;;14.37;32.73;99764.92;1753141;81;21263;-85
2021/04/10 10:29:04;;;;;;;8.70;3.50;;;;;;;14.41;29.37;99761.31;1737857;83;21436;-84
2021/04/10 10:31:47;;;;;;;5.83;3.17;;;;;;;14.48;31.04;99758.47;1738148;83;21213;-84
2021/04/10 10:34:20;;;;;;;10.10;3.87;;;;;;;14.59;31.52;99754.70;1738777;82;21189;-84
2021/04/10 10:36:49;;;;;;;8.33;3.40;;;;;;;14.73;31.65;99751.65;1731101;83;21174;-84
2021/04/10 10:39:35;;;;;;;8.75;4.28;;;;;;;14.89;32.12;99749.78;1734741;83;21194;-85
2021/04/10 10:42:05;;;;;;;9.10;4.08;;;;;;;15.07;32.06;99743.55;1741546;81;21284;-85
2021/04/10 10:47:14;;;;;;;14.63;5.95;;;;;;;15.44;28.38;99735.77;1818378;78;24715;-83
2021/04/10 10:49:51;;;;;;;11.70;5.33;;;;;;;15.55;30.97;99736.22;1785098;79;21161;-84
2021/04/10 10:52:19;;;;;;;13.68;8.18;;;;;;;15.68;30.26;99731.42;1817313;79;21240;-84
2021/04/10 10:54:48;;;;;;;10.93;4.35;;;;;;;15.94;31.26;99718.70;1745286;82;21164;-84
2021/04/10 10:57:19;;;;;;;12.55;6.08;;;;;;;16.19;29.14;99723.86;1754863;81;21950;-84
2021/04/10 10:59:48;;;;;;;9.23;5.13;;;;;;;16.32;30.40;99716.38;1734714;83;21287;-83
2021/04/10 11:02:19;;;;;;;11.83;5.08;;;;;;;16.43;29.65;99708.95;1781782;79;21347;-84
2021/04/10 11:04:47;;;;;;;7.90;4.12;;;;;;;16.51;26.68;99704.69;1787093;80;21710;-84
2021/04/10 11:07:19;;;;;;;8.33;4.00;;;;;;;16.74;29.36;99710.81;1795875;79;21130;-85
2021/04/10 11:09:49;;;;;;;11.60;6.92;;;;;;;16.94;28.60;99700.36;1760522;81;21122;-85
2021/04/10 11:12:17;;;;;;;13.70;6.97;;;;;;;17.18;29.17;99693.69;1812723;78;21252;-83
2021/04/10 11:14:47;;;;;;;13.22;5.60;;;;;;;17.40;25.76;99698.87;1818380;79;21228;-83
2021/04/10 11:17:30;;;;;;;13.18;6.03;;;;;;;17.65;26.74;99692.92;1807662;78;21252;-84
2021/04/10 11:19:59;;;;;;;9.48;4.12;;;;;;;17.73;27.43;99683.38;1807440;79;21325;-84
2021/04/10 11:22:27;;;;;;;9.05;4.50;;;;;;;17.86;23.01;99683.69;1797382;79;21265;-84
2021/04/10 11:25:01;;;;;;;6.58;3.45;;;;;;;18.08;22.19;99684.43;1802508;79;21307;-85
2021/04/10 11:27:35;;;;;;;4.17;2.15;;;;;;;18.35;22.42;99677.93;1790307;79;21229;-85
2021/04/10 11:30:12;;;;;;;6.10;2.55;;;;;;;18.56;20.10;99674.70;1788164;79;21263;-85
2021/04/10 11:32:43;;;;;;;11.83;2.80;;;;;;;18.71;22.68;99674.44;1808543;79;21244;-84
2021/04/10 11:35:23;;;;;;;8.48;3.77;;;;;;;18.94;21.48;99670.67;1811592;78;21300;-84
2021/04/10 11:37:57;;;;;;;5.35;2.83;;;;;;;19.20;21.79;99665.37;1795784;79;21129;-83
2021/04/10 11:40:31;;;;;;;6.12;2.47;;;;;;;19.38;21.67;99656.54;1749510;82;21248;-85
2021/04/10 11:43:09;;;;;;;4.15;2.50;;;;;;;19.28;19.35;99661.44;1753651;81;21158;-84
2021/04/10 11:45:44;;;;;;;6.97;2.70;;;;;;;19.75;21.77;99649.80;1749332;82;21146;-85
2021/04/10 11:48:16;;;;;;;5.50;2.33;;;;;;;20.12;21.78;99649.11;1751741;82;21276;-84
2021/04/10 11:50:56;;;;;;;5.70;2.52;;;;;;;20.42;18.60;99646.05;1766281;81;21656;-83
2021/04/10 11:53:40;;;;;;;7.62;2.25;;;;;;;20.38;18.50;99644.52;1765410;81;21844;-83
2021/04/10 11:56:31;;;;;;;8.45;2.35;;;;;;;20.59;21.59;99640.28;1753561;82;21304;-85
2021/04/10 11:59:10;;;;;;;9.93;2.35;;;;;;;20.75;20.92;99630.55;1749643;81;21291;-84
2021/04/10 12:01:49;;;;;;;8.48;3.33;;;;;;;20.98;19.86;99625.20;1786120;80;21311;-85
2021/04/10 12:04:26;;;;;;;8.25;2.70;;;;;;;21.21;19.27;99619.03;1808713;79;21276;-84
2021/04/10 12:07:05;;;;;;;4.22;2.37;;;;;;;21.44;18.02;99613.19;1794255;79;21245;-84
2021/04/10 12:09:39;;;;;;;8.70;2.50;;;;;;;21.24;18.59;99613.53;1787159;79;21317;-84
2021/04/10 12:12:10;;;;;;;6.65;3.35;;;;;;;21.33;18.99;99611.66;1784670;79;21268;-84
2021/04/10 12:14:43;;;;;;;4.33;2.30;;;;;;;21.58;20.23;99601.75;1812367;79;21158;-85
2021/04/10 12:17:13;;;;;;;6.47;2.67;;;;;;;21.87;21.06;99606.17;1785618;79;21177;-84
2021/04/10 12:19:41;;;;;;;9.28;2.90;;;;;;;21.91;16.70;99595.28;1805464;79;21145;-84
2021/04/10 12:22:09;;;;;;;5.08;3.00;;;;;;;22.20;17.64;99597.83;1776840;80;21316;-85
2021/04/10 12:24:36;;;;;;;5.30;2.45;;;;;;;22.35;18.21;99591.56;1778830;79;21162;-84
2021/04/10 12:27:05;;;;;;;4.55;2.15;;;;;;;22.58;16.79;99583.88;1784352;79;21142;-84
2021/04/10 12:29:32;;;;;;;4.05;2.12;;;;;;;23.20;16.94;99577.45;1781032;79;21264;-84
2021/04/10 12:32:00;;;;;;;5.72;2.25;;;;;;;23.58;19.19;99584.50;1815947;79;21328;-84
2021/04/10 12:34:27;;;;;;;6.28;2.62;;;;;;;24.04;15.67;99572.88;1810335;79;21292;-85
2021/04/10 12:36:54;;;;;;;7.15;2.55;;;;;;;24.77;16.05;99578.02;1790109;79;21271;-85
2021/04/10 12:39:22;;;;;;;6.85;3.10;;;;;;;25.21;15.99;99567.56;1805209;79;21260;-87
2021/04/10 12:41:49;;;;;;;6.42;2.85;;;;;;;25.96;16.94;99573.59;1810354;79;21264;-86
2021/04/10 12:44:18;;;;;;;6.62;2.62;;;;;;;26.81;16.15;99564.41;1784701;80;21261;-84
2021/04/10 12:46:45;;;;;;;5.33;2.60;;;;;;;26.83;15.83;99562.45;1799773;79;21259;-86
2021/04/10 12:49:12;;;;;;;5.92;2.25;;;;;;;27.08;12.81;99563.36;1813689;79;21313;-84
2021/04/10 12:51:40;;;;;;;7.17;2.42;;;;;;;27.63;15.17;99563.53;1811770;79;21300;-86
2021/04/10 12:54:07;;;;;;;6.53;2.25;;;;;;;28.23;14.26;99556.35;1772638;79;21640;-86
2021/04/10 12:56:35;;;;;;;5.85;2.05;;;;;;;28.28;13.98;99551.41;1797322;79;21319;-86
2021/04/10 12:59:02;;;;;;;5.83;2.30;;;;;;;28.44;14.89;99558.02;1813678;79;21329;-88
2021/04/10 13:01:31;;;;;;;6.97;2.65;;;;;;;28.09;14.82;99558.95;1819941;77;21245;-85
2021/04/10 13:03:59;;;;;;;5.70;2.37;;;;;;;27.87;14.17;99557.34;1819967;77;21284;-88
2021/04/10 13:06:27;;;;;;;6.17;2.30;;;;;;;27.62;13.67;99560.52;1819642;78;21158;-86
2021/04/10 13:08:55;;;;;;;4.37;2.17;;;;;;;27.83;12.32;99555.90;1809752;79;21253;-87
2021/04/10 13:11:22;;;;;;;4.17;2.27;;;;;;;27.56;12.83;99552.05;1804127;78;21276;-87
2021/04/10 13:13:49;;;;;;;4.50;2.40;;;;;;;28.08;12.08;99552.40;1804246;79;21268;-87
2021/04/10 13:16:17;;;;;;;6.00;2.37;;;;;;;28.03;13.91;99546.11;1801461;80;21244;-88
2021/04/10 13:18:44;;;;;;;7.55;2.25;;;;;;;28.43;14.54;99545.16;1750994;79;21320;-87
2021/04/10 13:21:11;;;;;;;6.62;2.47;;;;;;;28.81;12.79;99550.13;1750917;79;21324;-87
2021/04/10 13:23:38;;;;;;;5.95;2.40;;;;;;;28.82;14.23;99535.73;1751053;79;21249;-87
2021/04/10 13:26:06;;;;;;;7.85;2.77;;;;;;;28.46;13.56;99542.68;1709348;80;21334;-85
2021/04/10 13:28:33;;;;;;;7.45;2.70;;;;;;;27.95;12.23;99533.94;1773041;81;21227;-86
2021/04/10 13:31:01;;;;;;;6.12;2.05;;;;;;;28.54;12.97;99537.49;1772193;78;21248;-86
2021/04/10 13:33:29;;;;;;;5.62;2.12;;;;;;;28.93;12.35;99534.74;1773451;81;21236;-87
2021/04/10 13:35:56;;;;;;;5.53;2.40;;;;;;;28.69;11.93;99525.36;1758197;81;21105;-87
2021/04/10 13:38:24;;;;;;;8.75;2.47;;;;;;;28.82;11.79;99526.38;1769652;80;21145;-86
2021/04/10 13:40:52;;;;;;;7.50;2.90;;;;;;;29.00;11.23;99519.77;1775340;79;21256;-84
2021/04/10 13:43:25;;;;;;;6.62;2.70;;;;;;;29.59;13.48;99516.86;1775602;79;21299;-87
2021/04/10 13:46:08;;;;;;;11.60;2.87;;;;;;;29.43;12.42;99519.69;1745550;80;21295;-84
2021/04/10 13:49:17;;;;;;;8.25;2.62;;;;;;;29.86;11.79;99513.30;1760115;79;21252;-87
2021/04/10 13:55:22;;;;;;;6.97;2.40;;;;;;;30.33;12.63;99513.92;1732428;80;21118;-85
2021/04/10 13:57:50;;;;;;;5.75;2.30;;;;;;;28.99;12.61;99504.72;1732911;80;21277;-85
2021/04/10 14:00:19;;;;;;;4.87;2.40;;;;;;;29.15;12.92;99511.64;1727850;78;21159;-88
2021/04/10 14:02:47;;;;;;;6.53;2.22;;;;;;;28.95;11.62;99501.98;1717248;83;21342;-87
2021/04/10 14:05:19;;;;;;;6.85;2.40;;;;;;;29.23;11.43;99512.25;1724137;80;21353;-85
2021/04/10 14:07:47;;;;;;;5.90;2.90;;;;;;;28.83;12.92;99505.33;1739778;82;21291;-88
2021/04/10 14:10:22;;;;;;;4.30;2.10;;;;;;;28.90;12.88;99510.43;1745239;82;21228;-88
2021/04/10 14:12:51;;;;;;;8.88;2.67;;;;;;;28.63;12.52;99505.88;1760798;81;21137;-89
2021/04/10 14:15:26;;;;;;;4.65;2.25;;;;;;;28.84;12.57;99503.49;1760614;81;21239;-87
2021/04/10 14:17:54;;;;;;;4.95;2.52;;;;;;;28.96;13.01;99503.66;1760106;78;21274;-83
2021/04/10 14:20:28;;;;;;;5.87;2.60;;;;;;;29.32;12.72;99507.82;1742442;81;21264;-88
2021/04/10 14:22:56;;;;;;;5.95;2.60;;;;;;;29.61;12.72;99500.13;1753684;79;21303;-84
2021/04/10 14:25:29;;;;;;;5.30;2.10;;;;;;;30.05;11.35;99497.58;1750274;82;21161;-85
2021/04/10 14:27:57;;;;;;;4.90;2.17;;;;;;;30.38;11.19;99489.34;1751673;82;21136;-88
2021/04/10 14:30:29;;;;;;;5.17;2.45;;;;;;;30.60;11.14;99492.01;1744403;78;21372;-84
2021/04/10 14:32:57;;;;;;;;;;;;;;;30.47;11.83;99490.23;1759085;78;21115;-83
2021/04/10 14:35:30;;;;;;;5.05;2.40;;;;;;;30.23;10.26;99478.28;1752862;78;20120;-84
2021/04/10 14:37:58;;;;;;;3.62;2.42;;;;;;;30.46;11.80;99476.46;1792922;78;21228;-85
2021/04/10 14:40:25;;;;;;;5.85;2.70;;;;;;;30.19;11.39;99481.44;1762609;78;21292;-86
2021/04/10 14:42:53;;;;;;;6.58;2.60;;;;;;;30.81;11.08;99478.70;1699948;81;21351;-84
2021/04/10 14:45:21;;;;;;;4.58;2.20;;;;;;;30.58;11.61;99473.88;1717079;78;21317;-86
2021/04/10 14:47:50;;;;;;;7.53;2.25;;;;;;;30.51;12.05;99474.99;1781024;78;21099;-81
2021/04/10 14:50:18;;;;;;;5.03;2.45;;;;;;;30.63;10.67;99468.86;1769274;75;21212;-86
2021/04/10 14:52:45;;;;;;;6.33;2.02;;;;;;;30.24;11.75;99465.23;1802004;80;21280;-86
2021/04/10 14:55:15;;;;;;;5.22;2.37;;;;;;;30.06;11.08;99467.08;1785212;79;21251;-85
2021/04/10 14:57:43;;;;;;;5.22;2.10;;;;;;;30.08;11.23;99468.63;1773593;80;21248;-86
2021/04/10 15:00:12;;;;;;;5.37;2.70;;;;;;;29.92;11.07;99465.31;1754954;79;21274;-85
2021/04/10 15:02:39;;;;;;;8.65;2.75;;;;;;;29.63;11.26;99459.30;1763685;79;21309;-85
2021/04/10 15:05:09;;;;;;;5.47;2.45;;;;;;;29.97;12.03;99464.00;1763523;81;21219;-84
2021/04/10 15:07:37;;;;;;;8.88;2.37;;;;;;;30.09;12.32;99466.78;1763582;79;21247;-85
2021/04/10 15:10:07;;;;;;;7.33;2.40;;;;;;;28.89;11.04;99467.28;1760835;80;21282;-88
2021/04/10 15:12:34;;;;;;;6.67;2.52;;;;;;;29.48;12.40;99465.16;1757553;81;21313;-88
2021/04/10 15:15:05;;;;;;;6.95;2.50;;;;;;;28.94;11.59;99462.81;1759446;80;21278;-87
2021/04/10 15:17:33;;;;;;;6.58;2.85;;;;;;;28.54;11.54;99466.12;1762401;80;21309;-88
2021/04/10 15:20:00;;;;;;;6.05;2.87;;;;;;;28.91;12.71;99464.47;1763175;80;21714;-88
2021/04/10 15:22:27;;;;;;;4.45;2.10;;;;;;;28.89;12.33;99462.44;1763414;81;21231;-87
2021/04/10 15:24:55;;;;;;;5.10;2.75;;;;;;;29.04;12.45;99458.77;1762164;80;21246;-87
2021/04/10 15:27:23;;;;;;;5.28;2.22;;;;;;;28.66;12.58;99461.44;1757198;80;21296;-87
2021/04/10 15:29:50;;;;;;;4.90;2.42;;;;;;;28.61;12.80;99462.39;1757044;80;21253;-86
2021/04/10 15:32:17;;;;;;;5.83;3.22;;;;;;;28.16;12.72;99461.16;1757087;80;21284;-83
2021/04/10 15:34:50;;;;;;;6.92;2.92;;;;;;;27.98;12.09;99464.20;1757335;80;21525;-87
2021/04/10 15:37:18;;;;;;;9.48;2.87;;;;;;;27.93;13.14;99459.77;1716329;79;21256;-86
2021/04/10 15:39:47;;;;;;;20.02;3.20;;;;;;;27.39;12.76;99459.26;1715330;82;21276;-86
2021/04/10 15:42:18;;;;;;;8.90;3.00;;;;;;;27.31;13.05;99460.44;1715385;84;21328;-86
2021/04/10 15:44:48;;;;;;;6.90;2.40;;;;;;;27.13;12.88;99460.22;1715724;82;21308;-87
2021/04/10 15:47:17;;;;;;;8.55;3.20;;;;;;;26.50;13.14;99456.31;1715588;84;21159;-86
2021/04/10 15:49:44;;;;;;;8.55;4.33;;;;;;;26.66;13.51;99457.20;1715566;82;21268;-87
2021/04/10 15:52:12;;;;;;;12.03;4.30;;;;;;;26.41;14.04;99460.63;1694155;84;21302;-85
2021/04/10 15:54:39;;;;;;;10.82;6.42;;;;;;;25.81;13.73;99465.62;1713111;84;21226;-87
2021/04/10 15:57:08;;;;;;;11.65;6.67;;;;;;;25.48;14.42;99456.75;1709002;84;21293;-84
2021/04/10 15:59:36;;;;;;;34.65;19.45;;;;;;;24.35;14.27;99469.14;1714834;84;21173;-84
2021/04/10 16:02:04;;;;;;;52.25;28.73;;;;;;;24.16;14.65;99465.23;1715013;84;21340;-85
2021/04/10 16:04:32;;;;;;;17.85;8.90;;;;;;;23.36;15.19;99459.16;1714528;84;21194;-85
2021/04/10 16:07:00;;;;;;;10.00;4.90;;;;;;;22.76;15.61;99461.19;1714731;84;21178;-85
2021/04/10 16:09:29;;;;;;;9.18;4.55;;;;;;;22.14;16.35;99461.86;1707198;84;21302;-83
2021/04/10 16:11:56;;;;;;;12.15;3.92;;;;;;;21.72;16.20;99456.66;1690182;84;21165;-82
2021/04/10 16:14:24;;;;;;;11.33;4.05;;;;;;;21.13;17.69;99462.64;1649020;84;21220;-84
2021/04/10 16:16:51;;;;;;;12.68;5.95;;;;;;;20.74;17.26;99459.74;1712553;84;21156;-83
2021/04/10 16:19:19;;;;;;;16.82;10.13;;;;;;;20.27;17.85;99466.05;1700274;84;21268;-83
2021/04/10 16:21:46;;;;;;;23.60;10.85;;;;;;;19.89;17.95;99469.63;1712206;82;21291;-85
2021/04/10 16:24:13;;;;;;;31.00;13.08;;;;;;;19.40;19.03;99464.00;1716326;83;21281;-86
2021/04/10 16:26:41;;;;;;;74.42;31.75;;;;;;;19.01;20.05;99462.61;1709124;84;21195;-85
2021/04/10 16:29:08;;;;;;;77.65;33.88;;;;;;;18.72;19.77;99462.80;1712693;84;21284;-86
2021/04/10 16:31:35;;;;;;;43.80;21.45;;;;;;;18.46;19.34;99461.94;1715265;82;21542;-84
2021/04/10 16:34:03;;;;;;;50.40;18.77;;;;;;;18.19;19.66;99464.66;1712041;84;21302;-85
2021/04/10 16:36:30;;;;;;;25.72;10.35;;;;;;;17.90;20.13;99468.27;1692078;84;21317;-86
2021/04/10 16:38:58;;;;;;;24.20;10.10;;;;;;;17.71;19.40;99468.30;1740712;82;21572;-86
2021/04/10 16:41:25;;;;;;;24.43;9.70;;;;;;;17.42;20.72;99470.98;1740934;82;21133;-85
2021/04/10 16:43:53;;;;;;;20.43;8.35;;;;;;;17.20;21.52;99470.67;1741059;81;21663;-87
2021/04/10 16:46:22;;;;;;;11.70;5.97;;;;;;;17.01;23.54;99473.75;1708198;84;21330;-86
2021/04/10 16:48:49;;;;;;;14.18;5.53;;;;;;;16.80;22.47;99475.09;1740733;82;21312;-86
2021/04/10 16:51:17;;;;;;;16.90;6.10;;;;;;;16.63;22.51;99473.22;1740907;82;21251;-85
2021/04/10 16:53:44;;;;;;;15.58;6.70;;;;;;;16.45;22.77;99479.25;1741523;81;21269;-86
2021/04/10 16:56:12;;;;;;;27.98;13.38;;;;;;;16.25;24.56;99477.48;1708725;83;21308;-85
2021/04/10 16:58:39;;;;;;;27.10;12.15;;;;;;;16.05;23.58;99481.78;1741082;82;21152;-85
2021/04/10 17:01:07;;;;;;;18.00;8.33;;;;;;;15.87;22.99;99486.48;1740804;82;21256;-86
2021/04/10 17:03:34;;;;;;;25.25;11.95;;;;;;;15.69;23.48;99489.34;1708112;84;21263;-84
2021/04/10 17:06:02;;;;;;;65.25;27.42;;;;;;;15.49;23.68;99483.58;1740602;81;21257;-85
2021/04/10 17:08:30;;;;;;;67.55;29.50;;;;;;;15.33;23.85;99487.25;1707804;82;21279;-84
2021/04/10 17:10:58;;;;;;;72.82;24.12;;;;;;;15.16;24.11;99493.58;1740853;80;21225;-85
2021/04/10 17:13:25;;;;;;;58.87;21.07;;;;;;;14.99;24.21;99492.91;1707933;84;21299;-85
2021/04/10 17:15:52;;;;;;;282.60;94.25;;;;;;;14.83;24.25;99496.55;1719937;82;21303;-85
2021/04/10 17:18:21;;;;;;;133.32;50.33;;;;;;;14.66;24.73;99499.75;1711205;84;21299;-85
2021/04/10 17:20:49;;;;;;;121.37;44.67;;;;;;;14.48;25.66;99503.39;1711363;84;21303;-84
2021/04/10 17:23:16;;;;;;;131.35;47.40;;;;;;;14.33;25.68;99509.99;1739220;82;21176;-84
2021/04/10 17:25:45;;;;;;;89.47;32.78;;;;;;;14.15;25.78;99511.08;1741066;82;21137;-84
2021/04/10 17:28:12;;;;;;;72.55;26.20;;;;;;;13.99;26.79;99520.72;1740976;81;21315;-85
2021/04/10 17:30:40;;;;;;;41.05;16.90;;;;;;;13.82;29.36;99524.31;1741396;82;21294;-85
2021/04/10 17:33:10;;;;;;;39.78;15.43;;;;;;;13.65;27.37;99524.86;1742548;82;21286;-82
2021/04/10 17:35:39;;;;;;;36.35;14.00;;;;;;;13.48;26.44;99527.97;1785008;80;21293;-85
2021/04/10 17:38:08;;;;;;;32.45;13.72;;;;;;;13.25;28.49;99536.43;1750785;82;21267;-85
2021/04/10 17:40:36;;;;;;;23.38;10.72;;;;;;;13.07;31.96;99541.73;1732900;81;21342;-87
2021/04/10 17:43:04;;;;;;;18.77;8.68;;;;;;;12.92;29.27;99541.72;1741865;80;21253;-84
2021/04/10 17:45:32;;;;;;;21.45;8.03;;;;;;;12.78;30.63;99552.98;1706276;84;21297;-85
2021/04/10 17:47:59;;;;;;;20.08;7.42;;;;;;;12.65;29.34;99553.32;1700844;84;21260;-84
2021/04/10 17:50:29;;;;;;;18.02;6.40;;;;;;;12.50;29.61;99554.55;1706596;82;21217;-86
2021/04/10 17:52:57;;;;;;;12.43;5.45;;;;;;;12.38;30.06;99565.76;1741807;82;21289;-84
2021/04/10 17:55:27;;;;;;;11.22;5.12;;;;;;;12.24;29.76;99564.80;1701486;84;21158;-86
2021/04/10 17:57:56;;;;;;;12.28;4.90;;;;;;;12.13;29.48;99571.55;1720810;81;21206;-84
2021/04/10 18:00:28;;;;;;;11.73;5.15;;;;;;;12.02;29.85;99577.03;1740540;83;21269;-86
2021/04/10 18:02:56;;;;;;;16.10;6.83;;;;;;;11.92;28.89;99578.98;1740501;80;21246;-85
2021/04/10 18:05:25;;;;;;;19.90;7.40;;;;;;;11.83;32.82;99585.66;1741542;82;21222;-85
2021/04/10 18:07:53;;;;;;;175.32;76.90;;;;;;;11.73;29.35;99583.70;1706484;84;21237;-85
2021/04/10 18:10:21;;;;;;;87.15;40.63;;;;;;;11.63;30.34;99592.61;1741604;82;21315;-85
2021/04/10 18:12:51;;;;;;;35.28;15.32;;;;;;;11.54;33.05;99599.34;1741703;82;21262;-83
2021/04/10 18:15:23;;;;;;;22.50;10.23;;;;;;;11.47;33.19;99601.64;1706608;84;21374;-84
2021/04/10 18:17:51;;;;;;;21.65;9.85;;;;;;;11.41;32.77;99607.83;1741717;82;21206;-85
2021/04/10 18:20:19;;;;;;;21.48;9.95;;;;;;;11.38;31.59;99606.61;1740994;82;21250;-83
2021/04/10 18:22:47;;;;;;;19.67;9.18;;;;;;;11.37;30.89;99618.34;1706833;83;21265;-85
2021/04/10 18:25:14;;;;;;;22.40;8.88;;;;;;;11.32;30.58;99610.19;1684445;81;21316;-84
2021/04/10 18:27:46;;;;;;;21.27;10.03;;;;;;;11.29;34.35;99612.83;1739545;83;21309;-85
2021/04/10 18:30:13;;;;;;;24.43;9.75;;;;;;;11.24;31.40;99615.98;1733648;83;21308;-84
2021/04/10 18:32:40;;;;;;;26.45;10.88;;;;;;;11.21;31.94;99625.14;1733554;83;21276;-85
2021/04/10 18:35:09;;;;;;;23.20;11.33;;;;;;;11.18;31.57;99622.62;1702543;83;21562;-83
2021/04/10 18:37:36;;;;;;;29.18;12.65;;;;;;;11.14;32.04;99626.13;1700446;84;21288;-85
2021/04/10 18:40:06;;;;;;;33.05;12.15;;;;;;;11.10;33.04;99630.98;1704401;83;21288;-83
2021/04/10 18:42:36;;;;;;;30.62;12.10;;;;;;;11.06;32.15;99622.41;1690507;84;21307;-84
2021/04/10 18:45:09;;;;;;;22.42;10.85;;;;;;;11.05;31.88;99625.02;1682796;84;21343;-86
2021/04/10 18:47:37;;;;;;;23.30;10.43;;;;;;;11.02;33.29;99625.95;1685685;84;21271;-83
2021/04/10 18:50:09;;;;;;;27.48;11.33;;;;;;;11.02;34.75;99627.25;1679932;84;21149;-85
2021/04/10 18:52:37;;;;;;;21.85;9.70;;;;;;;10.95;34.55;99612.63;1679869;82;21185;-85
2021/04/10 18:55:06;;;;;;;30.65;10.78;;;;;;;11.05;33.20;99628.92;1678640;85;21189;-83
2021/04/10 18:57:34;;;;;;;30.05;11.63;;;;;;;11.06;32.98;99630.63;1720126;83;21312;-83
2021/04/10 19:00:05;;;;;;;23.73;10.88;;;;;;;11.06;34.24;99641.03;1679726;84;21364;-86
2021/04/10 19:02:32;;;;;;;37.38;15.63;;;;;;;11.04;33.92;99631.98;1727730;82;21711;-83
2021/04/10 19:05:00;;;;;;;40.30;15.95;;;;;;;11.00;33.74;99637.25;1709490;83;21311;-83
2021/04/10 19:07:27;;;;;;;56.98;19.65;;;;;;;10.96;33.35;99637.73;1741900;82;21272;-83
2021/04/10 19:09:55;;;;;;;57.27;20.68;;;;;;;10.89;33.69;99639.60;1701493;83;21309;-84
2021/04/10 19:12:22;;;;;;;69.50;24.95;;;;;;;10.83;34.83;99641.47;1683754;85;21176;-82
2021/04/10 19:14:51;;;;;;;61.77;23.80;;;;;;;10.77;34.04;99638.52;1700302;83;22280;-84
2021/04/10 19:17:18;;;;;;;50.88;22.07;;;;;;;10.66;35.83;99639.98;1699593;84;21668;-81
2021/04/10 19:19:47;;;;;;;44.90;20.23;;;;;;;10.59;35.67;99640.98;1707065;82;21171;-87
2021/04/10 19:22:17;;;;;;;39.10;16.85;;;;;;;10.48;34.59;99641.59;1675280;84;21193;-83
2021/04/10 19:24:47;;;;;;;47.50;16.90;;;;;;;10.36;35.46;99640.05;1716618;82;21238;-85
2021/04/10 19:27:14;;;;;;;44.53;16.77;;;;;;;10.27;37.41;99644.92;1706597;83;21196;-85
2021/04/10 19:29:44;;;;;;;38.58;17.50;;;;;;;10.18;37.63;99650.24;1684116;82;21312;-84
2021/04/10 19:32:12;;;;;;;44.50;17.87;;;;;;;10.08;37.22;99649.52;1677800;84;21302;-84
2021/04/10 19:34:41;;;;;;;44.33;16.85;;;;;;;9.98;39.90;99652.27;1676892;83;21188;-84
2021/04/10 19:37:12;;;;;;;40.48;16.23;;;;;;;9.90;37.81;99653.67;1711959;82;21125;-84
2021/04/10 19:39:40;;;;;;;40.50;16.12;;;;;;;9.81;38.68;99655.97;1680076;83;21161;-84
2021/04/10 19:42:08;;;;;;;48.45;16.57;;;;;;;9.72;40.28;99655.63;1725684;80;21261;-84
2021/04/10 19:44:35;;;;;;;41.60;15.05;;;;;;;9.65;37.93;99650.52;1678378;81;21312;-85
2021/04/10 19:47:03;;;;;;;37.53;14.55;;;;;;;9.56;38.17;99654.95;1712409;84;21149;-84
2021/04/10 19:49:30;;;;;;;35.80;14.83;;;;;;;9.46;40.74;99648.16;1718533;79;21973;-85
2021/04/10 19:52:00;;;;;;;34.55;14.83;;;;;;;9.38;41.98;99655.63;1733595;78;21277;-85
2021/04/10 19:54:27;;;;;;;33.65;13.60;;;;;;;9.32;39.76;99660.44;1733522;79;21283;-85
2021/04/10 19:56:55;;;;;;;38.75;15.20;;;;;;;9.23;42.54;99652.74;1733589;77;21294;-85
2021/04/10 19:59:28;;;;;;;36.28;14.18;;;;;;;9.16;39.90;99662.33;1733788;77;21255;-86
2021/04/10 20:01:57;;;;;;;30.23;13.32;;;;;;;8.93;38.33;99632.72;1752919;77;21241;-84
2021/04/10 20:04:27;;;;;;;52.15;13.20;;;;;;;8.99;40.18;99672.01;1761869;78;21290;-85
2021/04/10 20:06:56;;;;;;;27.87;12.55;;;;;;;8.88;38.74;99670.38;1738776;83;21241;-84
2021/04/10 20:09:23;;;;;;;26.65;12.00;;;;;;;8.78;41.31;99668.74;1733681;78;21292;-86
2021/04/10 20:11:51;;;;;;;23.62;10.55;;;;;;;8.69;41.90;99677.88;1757219;80;21092;-84
2021/04/10 20:14:20;;;;;;;24.75;10.88;;;;;;;8.62;39.41;99670.60;1700042;78;21207;-88
2021/04/10 20:16:47;;;;;;;28.85;10.95;;;;;;;8.56;42.61;99681.02;1703994;81;21152;-85
2021/04/10 20:19:15;;;;;;;27.73;11.00;;;;;;;8.51;42.80;99678.89;1704306;81;21137;-85
2021/04/10 20:21:43;;;;;;;28.45;10.58;;;;;;;8.47;41.11;99680.63;1703950;81;21288;-84
2021/04/10 20:24:13;;;;;;;26.60;11.75;;;;;;;8.45;39.36;99677.64;1703492;81;21293;-84
2021/04/10 20:26:41;;;;;;;26.90;12.18;;;;;;;8.43;43.58;99676.34;1671828;84;21308;-85
2021/04/10 20:29:10;;;;;;;26.82;11.00;;;;;;;8.40;41.62;99678.94;1677484;83;21275;-85